sensor_id;sensor_type;location;lat;lon;timestamp;P1;durP1;ratioP1;P2;durP2;ratioP2
2031;SDS011;27625;50.422;7.944;2023-08-06T00:00:57;3.53;;;2.53;;
2031;SDS011;27625;50.422;7.944;2023-08-06T00:03:24;3.80;;;2.80;;
2031;SDS011;27625;50.422;7.944;2023-08-06T00:05:51;4.17;;;3.00;;
2031;SDS011;27625;50.422;7.944;2023-08-06T00:08:17;5.00;;;2.90;;
2031;SDS011;27625;50.422;7.944;2023-08-06T00:36:00;4.17;;;2.70;;
2031;SDS011;27625;50.422;7.944;2023-08-06T00:38:26;4.90;;;2.90;;
2031;SDS011;27625;50.422;7.944;2023-08-06T00:40:54;3.23;;;2.40;;
2031;SDS011;27625;50.422;7.944;2023-08-06T00:43:21;3.97;;;2.80;;
2031;SDS011;27625;50.422;7.944;2023-08-06T00:45:48;8.13;;;3.30;;
2031;SDS011;27625;50.422;7.944;2023-08-06T00:48:16;4.30;;;2.60;;
2031;SDS011;27625;50.422;7.944;2023-08-06T00:50:43;5.70;;;3.43;;
2031;SDS011;27625;50.422;7.944;2023-08-06T00:53:11;3.63;;;2.77;;
2031;SDS011;27625;50.422;7.944;2023-08-06T00:55:40;5.80;;;2.60;;
2031;SDS011;27625;50.422;7.944;2023-08-06T00:58:08;3.50;;;2.80;;
2031;SDS011;27625;50.422;7.944;2023-08-06T01:00:36;4.00;;;2.50;;
2031;SDS011;27625;50.422;7.944;2023-08-06T01:03:03;5.13;;;2.80;;
2031;SDS011;27625;50.422;7.944;2023-08-06T01:05:29;3.70;;;2.73;;
2031;SDS011;27625;50.422;7.944;2023-08-06T01:08:01;3.87;;;2.70;;
2031;SDS011;27625;50.422;7.944;2023-08-06T01:10:49;3.83;;;2.83;;
2031;SDS011;27625;50.422;7.944;2023-08-06T01:13:23;3.33;;;2.70;;
2031;SDS011;27625;50.422;7.944;2023-08-06T01:15:53;4.50;;;3.27;;
2031;SDS011;27625;50.422;7.944;2023-08-06T01:18:22;4.50;;;3.27;;
2031;SDS011;27625;50.422;7.944;2023-08-06T01:20:51;4.27;;;2.97;;
2031;SDS011;27625;50.422;7.944;2023-08-06T01:23:18;4.20;;;3.07;;
2031;SDS011;27625;50.422;7.944;2023-08-06T01:25:47;4.77;;;2.90;;
2031;SDS011;27625;50.422;7.944;2023-08-06T01:28:17;3.77;;;2.60;;
2031;SDS011;27625;50.422;7.944;2023-08-06T01:30:47;3.80;;;2.73;;
2031;SDS011;27625;50.422;7.944;2023-08-06T01:33:16;4.67;;;3.13;;
2031;SDS011;27625;50.422;7.944;2023-08-06T01:35:45;7.03;;;2.83;;
2031;SDS011;27625;50.422;7.944;2023-08-06T01:38:14;5.23;;;3.00;;
2031;SDS011;27625;50.422;7.944;2023-08-06T01:40:41;4.10;;;2.80;;
2031;SDS011;27625;50.422;7.944;2023-08-06T01:43:07;3.80;;;2.80;;
2031;SDS011;27625;50.422;7.944;2023-08-06T01:45:34;17.43;;;3.10;;
2031;SDS011;27625;50.422;7.944;2023-08-06T01:48:01;4.20;;;3.20;;
2031;SDS011;27625;50.422;7.944;2023-08-06T01:50:28;5.40;;;3.77;;
2031;SDS011;27625;50.422;7.944;2023-08-06T01:52:54;5.83;;;3.13;;
2031;SDS011;27625;50.422;7.944;2023-08-06T01:55:22;4.77;;;2.97;;
2031;SDS011;27625;50.422;7.944;2023-08-06T01:57:49;4.23;;;2.77;;
2031;SDS011;27625;50.422;7.944;2023-08-06T02:00:16;4.23;;;2.70;;
2031;SDS011;27625;50.422;7.944;2023-08-06T02:02:44;5.07;;;3.23;;
2031;SDS011;27625;50.422;7.944;2023-08-06T02:05:11;3.57;;;2.70;;
2031;SDS011;27625;50.422;7.944;2023-08-06T02:07:38;5.50;;;3.20;;
2031;SDS011;27625;50.422;7.944;2023-08-06T02:10:06;3.57;;;2.43;;
2031;SDS011;27625;50.422;7.944;2023-08-06T02:12:35;5.23;;;3.20;;
2031;SDS011;27625;50.422;7.944;2023-08-06T02:15:01;3.80;;;2.90;;
2031;SDS011;27625;50.422;7.944;2023-08-06T02:17:28;4.00;;;2.60;;
2031;SDS011;27625;50.422;7.944;2023-08-06T02:19:55;4.23;;;3.33;;
2031;SDS011;27625;50.422;7.944;2023-08-06T02:22:22;4.93;;;2.70;;
2031;SDS011;27625;50.422;7.944;2023-08-06T02:24:49;3.77;;;2.80;;
2031;SDS011;27625;50.422;7.944;2023-08-06T02:27:16;3.90;;;2.80;;
2031;SDS011;27625;50.422;7.944;2023-08-06T02:29:44;4.03;;;2.50;;
2031;SDS011;27625;50.422;7.944;2023-08-06T02:32:11;5.90;;;2.93;;
2031;SDS011;27625;50.422;7.944;2023-08-06T02:34:38;6.50;;;3.40;;
2031;SDS011;27625;50.422;7.944;2023-08-06T02:37:04;6.90;;;2.70;;
2031;SDS011;27625;50.422;7.944;2023-08-06T02:39:31;4.20;;;2.83;;
2031;SDS011;27625;50.422;7.944;2023-08-06T02:41:59;4.13;;;3.10;;
2031;SDS011;27625;50.422;7.944;2023-08-06T02:44:26;4.70;;;2.43;;
2031;SDS011;27625;50.422;7.944;2023-08-06T02:46:55;3.60;;;2.67;;
2031;SDS011;27625;50.422;7.944;2023-08-06T02:49:22;4.33;;;2.70;;
2031;SDS011;27625;50.422;7.944;2023-08-06T02:51:49;3.80;;;2.70;;
2031;SDS011;27625;50.422;7.944;2023-08-06T02:54:16;3.87;;;2.60;;
2031;SDS011;27625;50.422;7.944;2023-08-06T02:56:43;3.70;;;2.80;;
2031;SDS011;27625;50.422;7.944;2023-08-06T02:59:21;4.57;;;2.93;;
2031;SDS011;27625;50.422;7.944;2023-08-06T03:02:05;5.37;;;2.90;;
2031;SDS011;27625;50.422;7.944;2023-08-06T03:04:42;4.13;;;2.63;;
2031;SDS011;27625;50.422;7.944;2023-08-06T03:07:10;3.50;;;2.70;;
2031;SDS011;27625;50.422;7.944;2023-08-06T03:09:46;5.93;;;2.57;;
2031;SDS011;27625;50.422;7.944;2023-08-06T03:12:13;3.80;;;2.57;;
2031;SDS011;27625;50.422;7.944;2023-08-06T03:14:40;4.17;;;3.10;;
2031;SDS011;27625;50.422;7.944;2023-08-06T03:17:10;4.63;;;2.63;;
2031;SDS011;27625;50.422;7.944;2023-08-06T03:19:37;4.40;;;2.13;;
2031;SDS011;27625;50.422;7.944;2023-08-06T03:22:05;5.97;;;2.60;;
2031;SDS011;27625;50.422;7.944;2023-08-06T03:24:34;3.77;;;2.83;;
2031;SDS011;27625;50.422;7.944;2023-08-06T03:27:01;4.27;;;2.87;;
2031;SDS011;27625;50.422;7.944;2023-08-06T03:29:29;4.23;;;2.77;;
2031;SDS011;27625;50.422;7.944;2023-08-06T03:31:59;4.30;;;2.83;;
2031;SDS011;27625;50.422;7.944;2023-08-06T03:34:31;3.70;;;2.80;;
2031;SDS011;27625;50.422;7.944;2023-08-06T03:36:57;3.80;;;2.90;;
2031;SDS011;27625;50.422;7.944;2023-08-06T03:39:26;3.73;;;2.57;;
2031;SDS011;27625;50.422;7.944;2023-08-06T03:41:52;3.23;;;2.60;;
2031;SDS011;27625;50.422;7.944;2023-08-06T03:44:20;3.50;;;2.70;;
2031;SDS011;27625;50.422;7.944;2023-08-06T03:46:47;3.80;;;2.57;;
2031;SDS011;27625;50.422;7.944;2023-08-06T03:49:14;5.90;;;2.47;;
2031;SDS011;27625;50.422;7.944;2023-08-06T03:51:43;4.17;;;2.63;;
2031;SDS011;27625;50.422;7.944;2023-08-06T03:54:10;3.93;;;2.43;;
2031;SDS011;27625;50.422;7.944;2023-08-06T03:56:36;4.00;;;2.83;;
2031;SDS011;27625;50.422;7.944;2023-08-06T03:59:04;4.40;;;3.10;;
2031;SDS011;27625;50.422;7.944;2023-08-06T04:01:31;3.93;;;2.87;;
2031;SDS011;27625;50.422;7.944;2023-08-06T04:03:57;3.50;;;2.50;;
2031;SDS011;27625;50.422;7.944;2023-08-06T04:06:24;4.07;;;2.60;;
2031;SDS011;27625;50.422;7.944;2023-08-06T04:08:53;3.37;;;2.47;;
2031;SDS011;27625;50.422;7.944;2023-08-06T04:11:19;3.70;;;2.40;;
2031;SDS011;27625;50.422;7.944;2023-08-06T04:13:46;6.77;;;2.83;;
2031;SDS011;27625;50.422;7.944;2023-08-06T04:16:13;5.30;;;3.07;;
2031;SDS011;27625;50.422;7.944;2023-08-06T04:18:40;4.70;;;2.67;;
2031;SDS011;27625;50.422;7.944;2023-08-06T04:21:08;5.27;;;3.67;;
2031;SDS011;27625;50.422;7.944;2023-08-06T04:23:35;4.43;;;3.30;;
2031;SDS011;27625;50.422;7.944;2023-08-06T04:26:07;4.93;;;2.90;;
2031;SDS011;27625;50.422;7.944;2023-08-06T04:28:35;2.77;;;2.10;;
2031;SDS011;27625;50.422;7.944;2023-08-06T04:31:01;3.90;;;2.63;;
2031;SDS011;27625;50.422;7.944;2023-08-06T04:33:31;3.63;;;2.70;;
2031;SDS011;27625;50.422;7.944;2023-08-06T04:36:01;5.43;;;2.70;;
2031;SDS011;27625;50.422;7.944;2023-08-06T04:38:28;3.00;;;2.33;;
2031;SDS011;27625;50.422;7.944;2023-08-06T04:40:56;3.57;;;2.63;;
2031;SDS011;27625;50.422;7.944;2023-08-06T04:43:25;3.83;;;2.60;;
2031;SDS011;27625;50.422;7.944;2023-08-06T04:45:52;3.70;;;1.93;;
2031;SDS011;27625;50.422;7.944;2023-08-06T04:48:20;4.90;;;2.43;;
2031;SDS011;27625;50.422;7.944;2023-08-06T04:50:48;3.67;;;2.33;;
2031;SDS011;27625;50.422;7.944;2023-08-06T04:53:17;3.70;;;2.20;;
2031;SDS011;27625;50.422;7.944;2023-08-06T04:55:44;3.67;;;2.33;;
2031;SDS011;27625;50.422;7.944;2023-08-06T04:58:10;3.77;;;2.17;;
2031;SDS011;27625;50.422;7.944;2023-08-06T05:00:38;3.90;;;2.23;;
2031;SDS011;27625;50.422;7.944;2023-08-06T05:03:05;3.70;;;2.40;;
2031;SDS011;27625;50.422;7.944;2023-08-06T05:05:35;4.23;;;2.33;;
2031;SDS011;27625;50.422;7.944;2023-08-06T05:08:03;3.20;;;2.20;;
2031;SDS011;27625;50.422;7.944;2023-08-06T05:10:30;3.03;;;2.17;;
2031;SDS011;27625;50.422;7.944;2023-08-06T05:12:58;5.73;;;2.20;;
2031;SDS011;27625;50.422;7.944;2023-08-06T05:15:26;3.67;;;2.40;;
2031;SDS011;27625;50.422;7.944;2023-08-06T05:17:54;6.53;;;2.43;;
2031;SDS011;27625;50.422;7.944;2023-08-06T05:20:21;3.83;;;2.40;;
2031;SDS011;27625;50.422;7.944;2023-08-06T05:22:48;3.63;;;2.50;;
2031;SDS011;27625;50.422;7.944;2023-08-06T05:25:14;3.03;;;1.90;;
2031;SDS011;27625;50.422;7.944;2023-08-06T05:27:41;3.83;;;2.20;;
2031;SDS011;27625;50.422;7.944;2023-08-06T05:30:08;3.63;;;2.43;;
2031;SDS011;27625;50.422;7.944;2023-08-06T05:32:35;4.20;;;2.37;;
2031;SDS011;27625;50.422;7.944;2023-08-06T05:35:04;3.43;;;2.10;;
2031;SDS011;27625;50.422;7.944;2023-08-06T05:37:31;3.50;;;2.53;;
2031;SDS011;27625;50.422;7.944;2023-08-06T05:39:58;3.37;;;2.37;;
2031;SDS011;27625;50.422;7.944;2023-08-06T05:42:28;4.10;;;2.30;;
2031;SDS011;27625;50.422;7.944;2023-08-06T05:44:54;7.23;;;2.23;;
2031;SDS011;27625;50.422;7.944;2023-08-06T05:47:21;3.03;;;2.00;;
2031;SDS011;27625;50.422;7.944;2023-08-06T05:49:49;3.07;;;2.10;;
2031;SDS011;27625;50.422;7.944;2023-08-06T05:52:18;4.37;;;1.93;;
2031;SDS011;27625;50.422;7.944;2023-08-06T05:54:44;3.50;;;2.30;;
2031;SDS011;27625;50.422;7.944;2023-08-06T05:57:13;3.00;;;1.93;;
2031;SDS011;27625;50.422;7.944;2023-08-06T05:59:40;3.97;;;2.37;;
2031;SDS011;27625;50.422;7.944;2023-08-06T06:02:07;2.40;;;1.73;;
2031;SDS011;27625;50.422;7.944;2023-08-06T06:04:33;4.43;;;1.80;;
2031;SDS011;27625;50.422;7.944;2023-08-06T06:07:00;2.90;;;1.70;;
2031;SDS011;27625;50.422;7.944;2023-08-06T06:09:28;4.20;;;1.70;;
2031;SDS011;27625;50.422;7.944;2023-08-06T06:12:01;3.40;;;1.40;;
2031;SDS011;27625;50.422;7.944;2023-08-06T06:14:28;2.37;;;1.57;;
2031;SDS011;27625;50.422;7.944;2023-08-06T06:16:54;2.93;;;1.53;;
2031;SDS011;27625;50.422;7.944;2023-08-06T06:19:21;2.23;;;1.20;;
2031;SDS011;27625;50.422;7.944;2023-08-06T06:21:48;2.30;;;1.37;;
2031;SDS011;27625;50.422;7.944;2023-08-06T06:24:14;2.40;;;1.60;;
2031;SDS011;27625;50.422;7.944;2023-08-06T06:26:42;2.47;;;1.60;;
2031;SDS011;27625;50.422;7.944;2023-08-06T06:29:09;3.13;;;1.47;;
2031;SDS011;27625;50.422;7.944;2023-08-06T06:31:36;4.97;;;1.53;;
2031;SDS011;27625;50.422;7.944;2023-08-06T06:34:02;2.60;;;1.30;;
2031;SDS011;27625;50.422;7.944;2023-08-06T06:36:29;2.60;;;1.50;;
2031;SDS011;27625;50.422;7.944;2023-08-06T06:38:55;2.30;;;1.50;;
2031;SDS011;27625;50.422;7.944;2023-08-06T06:41:23;2.00;;;1.00;;
2031;SDS011;27625;50.422;7.944;2023-08-06T06:43:53;2.40;;;1.20;;
2031;SDS011;27625;50.422;7.944;2023-08-06T06:46:21;2.13;;;1.23;;
2031;SDS011;27625;50.422;7.944;2023-08-06T06:48:48;2.43;;;1.27;;
2031;SDS011;27625;50.422;7.944;2023-08-06T06:51:14;3.10;;;1.27;;
2031;SDS011;27625;50.422;7.944;2023-08-06T06:53:42;2.00;;;1.00;;
2031;SDS011;27625;50.422;7.944;2023-08-06T06:56:10;2.23;;;1.10;;
2031;SDS011;27625;50.422;7.944;2023-08-06T06:58:37;2.17;;;1.07;;
2031;SDS011;27625;50.422;7.944;2023-08-06T07:01:09;2.27;;;1.20;;
2031;SDS011;27625;50.422;7.944;2023-08-06T07:03:36;2.20;;;1.20;;
2031;SDS011;27625;50.422;7.944;2023-08-06T07:06:04;2.00;;;0.90;;
2031;SDS011;27625;50.422;7.944;2023-08-06T07:08:31;2.00;;;1.10;;
2031;SDS011;27625;50.422;7.944;2023-08-06T07:11:01;2.33;;;1.20;;
2031;SDS011;27625;50.422;7.944;2023-08-06T07:13:28;2.17;;;1.20;;
2031;SDS011;27625;50.422;7.944;2023-08-06T07:15:56;1.90;;;0.80;;
2031;SDS011;27625;50.422;7.944;2023-08-06T07:18:24;1.90;;;0.90;;
2031;SDS011;27625;50.422;7.944;2023-08-06T07:20:54;2.63;;;1.07;;
2031;SDS011;27625;50.422;7.944;2023-08-06T07:23:22;3.20;;;1.10;;
2031;SDS011;27625;50.422;7.944;2023-08-06T07:25:49;1.80;;;0.90;;
2031;SDS011;27625;50.422;7.944;2023-08-06T07:28:17;2.20;;;1.10;;
2031;SDS011;27625;50.422;7.944;2023-08-06T07:30:44;1.80;;;0.90;;
2031;SDS011;27625;50.422;7.944;2023-08-06T07:33:11;2.23;;;1.20;;
2031;SDS011;27625;50.422;7.944;2023-08-06T07:35:39;2.00;;;1.10;;
2031;SDS011;27625;50.422;7.944;2023-08-06T07:38:06;3.53;;;1.17;;
2031;SDS011;27625;50.422;7.944;2023-08-06T07:40:34;2.23;;;1.00;;
2031;SDS011;27625;50.422;7.944;2023-08-06T07:43:08;2.00;;;0.90;;
2031;SDS011;27625;50.422;7.944;2023-08-06T07:45:34;2.20;;;1.10;;
2031;SDS011;27625;50.422;7.944;2023-08-06T07:48:01;2.37;;;1.07;;
2031;SDS011;27625;50.422;7.944;2023-08-06T07:50:28;2.00;;;1.10;;
2031;SDS011;27625;50.422;7.944;2023-08-06T07:52:57;2.90;;;1.10;;
2031;SDS011;27625;50.422;7.944;2023-08-06T07:55:24;2.50;;;1.13;;
2031;SDS011;27625;50.422;7.944;2023-08-06T07:57:52;1.90;;;0.90;;
2031;SDS011;27625;50.422;7.944;2023-08-06T08:00:19;2.03;;;0.90;;
2031;SDS011;27625;50.422;7.944;2023-08-06T08:02:46;2.20;;;0.97;;
2031;SDS011;27625;50.422;7.944;2023-08-06T08:05:13;1.90;;;1.00;;
2031;SDS011;27625;50.422;7.944;2023-08-06T08:07:40;1.90;;;0.90;;
2031;SDS011;27625;50.422;7.944;2023-08-06T08:10:09;1.97;;;1.00;;
2031;SDS011;27625;50.422;7.944;2023-08-06T08:12:35;1.80;;;0.90;;
2031;SDS011;27625;50.422;7.944;2023-08-06T08:15:02;2.00;;;0.80;;
2031;SDS011;27625;50.422;7.944;2023-08-06T08:17:30;2.17;;;0.90;;
2031;SDS011;27625;50.422;7.944;2023-08-06T08:19:56;1.93;;;1.00;;
2031;SDS011;27625;50.422;7.944;2023-08-06T08:22:23;3.50;;;1.10;;
2031;SDS011;27625;50.422;7.944;2023-08-06T08:24:50;3.63;;;1.20;;
2031;SDS011;27625;50.422;7.944;2023-08-06T08:27:20;2.27;;;0.93;;
2031;SDS011;27625;50.422;7.944;2023-08-06T08:29:47;2.10;;;1.00;;
2031;SDS011;27625;50.422;7.944;2023-08-06T08:32:13;2.00;;;0.97;;
2031;SDS011;27625;50.422;7.944;2023-08-06T08:34:40;1.97;;;1.07;;
2031;SDS011;27625;50.422;7.944;2023-08-06T08:37:07;2.10;;;1.00;;
2031;SDS011;27625;50.422;7.944;2023-08-06T08:39:33;2.30;;;1.00;;
2031;SDS011;27625;50.422;7.944;2023-08-06T08:42:00;1.90;;;0.93;;
2031;SDS011;27625;50.422;7.944;2023-08-06T08:44:30;2.00;;;1.00;;
2031;SDS011;27625;50.422;7.944;2023-08-06T08:46:59;2.20;;;1.00;;
2031;SDS011;27625;50.422;7.944;2023-08-06T08:49:26;2.03;;;1.10;;
2031;SDS011;27625;50.422;7.944;2023-08-06T08:51:54;2.20;;;1.00;;
2031;SDS011;27625;50.422;7.944;2023-08-06T08:54:22;2.30;;;1.20;;
2031;SDS011;27625;50.422;7.944;2023-08-06T08:56:50;2.00;;;1.00;;
2031;SDS011;27625;50.422;7.944;2023-08-06T08:59:17;2.00;;;0.97;;
2031;SDS011;27625;50.422;7.944;2023-08-06T09:01:45;2.63;;;1.17;;
2031;SDS011;27625;50.422;7.944;2023-08-06T09:04:15;2.10;;;0.90;;
2031;SDS011;27625;50.422;7.944;2023-08-06T09:06:42;2.03;;;0.97;;
2031;SDS011;27625;50.422;7.944;2023-08-06T09:09:12;2.17;;;1.13;;
2031;SDS011;27625;50.422;7.944;2023-08-06T09:11:40;2.00;;;0.90;;
2031;SDS011;27625;50.422;7.944;2023-08-06T09:14:09;2.63;;;0.93;;
2031;SDS011;27625;50.422;7.944;2023-08-06T09:16:37;2.97;;;1.10;;
2031;SDS011;27625;50.422;7.944;2023-08-06T09:19:10;2.00;;;0.90;;
2031;SDS011;27625;50.422;7.944;2023-08-06T09:21:37;1.90;;;0.97;;
2031;SDS011;27625;50.422;7.944;2023-08-06T09:24:07;2.10;;;1.00;;
2031;SDS011;27625;50.422;7.944;2023-08-06T09:26:36;1.87;;;0.83;;
2031;SDS011;27625;50.422;7.944;2023-08-06T09:29:04;2.90;;;1.13;;
2031;SDS011;27625;50.422;7.944;2023-08-06T09:31:40;2.23;;;1.20;;
2031;SDS011;27625;50.422;7.944;2023-08-06T09:34:11;3.20;;;0.90;;
2031;SDS011;27625;50.422;7.944;2023-08-06T09:36:40;2.00;;;0.90;;
2031;SDS011;27625;50.422;7.944;2023-08-06T09:39:18;2.10;;;1.10;;
2031;SDS011;27625;50.422;7.944;2023-08-06T09:41:45;1.90;;;0.77;;
2031;SDS011;27625;50.422;7.944;2023-08-06T09:44:16;1.90;;;0.90;;
2031;SDS011;27625;50.422;7.944;2023-08-06T09:46:46;2.00;;;0.90;;
2031;SDS011;27625;50.422;7.944;2023-08-06T09:49:15;2.10;;;1.10;;
2031;SDS011;27625;50.422;7.944;2023-08-06T09:51:43;2.13;;;0.80;;
2031;SDS011;27625;50.422;7.944;2023-08-06T09:54:11;4.23;;;1.10;;
2031;SDS011;27625;50.422;7.944;2023-08-06T09:56:38;2.33;;;1.10;;
2031;SDS011;27625;50.422;7.944;2023-08-06T09:59:05;2.20;;;1.10;;
2031;SDS011;27625;50.422;7.944;2023-08-06T10:01:32;2.10;;;1.00;;
2031;SDS011;27625;50.422;7.944;2023-08-06T10:04:00;2.27;;;1.10;;
2031;SDS011;27625;50.422;7.944;2023-08-06T10:06:32;2.20;;;1.10;;
2031;SDS011;27625;50.422;7.944;2023-08-06T10:09:01;2.10;;;1.03;;
2031;SDS011;27625;50.422;7.944;2023-08-06T10:11:28;2.00;;;1.03;;
2031;SDS011;27625;50.422;7.944;2023-08-06T10:13:58;2.50;;;1.10;;
2031;SDS011;27625;50.422;7.944;2023-08-06T10:16:30;2.30;;;1.30;;
2031;SDS011;27625;50.422;7.944;2023-08-06T10:18:58;3.00;;;1.23;;
2031;SDS011;27625;50.422;7.944;2023-08-06T10:21:26;1.90;;;1.00;;
2031;SDS011;27625;50.422;7.944;2023-08-06T10:23:57;2.23;;;1.23;;
2031;SDS011;27625;50.422;7.944;2023-08-06T10:26:27;2.20;;;1.20;;
2031;SDS011;27625;50.422;7.944;2023-08-06T10:28:54;3.13;;;1.33;;
2031;SDS011;27625;50.422;7.944;2023-08-06T10:34:20;2.20;;;1.20;;
2031;SDS011;27625;50.422;7.944;2023-08-06T10:36:46;2.20;;;1.17;;
2031;SDS011;27625;50.422;7.944;2023-08-06T10:39:18;2.00;;;1.00;;
2031;SDS011;27625;50.422;7.944;2023-08-06T10:41:45;2.37;;;1.00;;
2031;SDS011;27625;50.422;7.944;2023-08-06T10:44:12;1.93;;;0.90;;
2031;SDS011;27625;50.422;7.944;2023-08-06T10:46:40;2.00;;;0.90;;
2031;SDS011;27625;50.422;7.944;2023-08-06T10:49:06;2.00;;;0.90;;
2031;SDS011;27625;50.422;7.944;2023-08-06T10:51:33;1.83;;;0.73;;
2031;SDS011;27625;50.422;7.944;2023-08-06T10:54:01;2.10;;;0.90;;
2031;SDS011;27625;50.422;7.944;2023-08-06T10:56:29;2.33;;;1.00;;
2031;SDS011;27625;50.422;7.944;2023-08-06T10:58:56;2.00;;;0.97;;
2031;SDS011;27625;50.422;7.944;2023-08-06T11:01:23;3.27;;;1.67;;
2031;SDS011;27625;50.422;7.944;2023-08-06T11:03:50;2.00;;;0.90;;
2031;SDS011;27625;50.422;7.944;2023-08-06T11:06:18;3.00;;;1.90;;
2031;SDS011;27625;50.422;7.944;2023-08-06T11:08:47;3.27;;;0.90;;
2031;SDS011;27625;50.422;7.944;2023-08-06T11:11:16;2.40;;;1.00;;
2031;SDS011;27625;50.422;7.944;2023-08-06T11:13:44;4.57;;;1.33;;
2031;SDS011;27625;50.422;7.944;2023-08-06T11:16:12;1.77;;;0.70;;
2031;SDS011;27625;50.422;7.944;2023-08-06T11:18:39;1.83;;;0.77;;
2031;SDS011;27625;50.422;7.944;2023-08-06T11:21:07;1.70;;;0.70;;
2031;SDS011;27625;50.422;7.944;2023-08-06T11:23:34;2.00;;;0.97;;
2031;SDS011;27625;50.422;7.944;2023-08-06T11:26:02;2.27;;;0.80;;
2031;SDS011;27625;50.422;7.944;2023-08-06T11:28:30;3.67;;;1.00;;
2031;SDS011;27625;50.422;7.944;2023-08-06T11:30:59;1.80;;;0.80;;
2031;SDS011;27625;50.422;7.944;2023-08-06T11:33:27;1.70;;;0.70;;
2031;SDS011;27625;50.422;7.944;2023-08-06T11:35:57;2.83;;;0.90;;
2031;SDS011;27625;50.422;7.944;2023-08-06T11:38:28;1.90;;;0.90;;
2031;SDS011;27625;50.422;7.944;2023-08-06T11:40:55;2.00;;;1.00;;
2031;SDS011;27625;50.422;7.944;2023-08-06T11:43:22;2.67;;;1.00;;
2031;SDS011;27625;50.422;7.944;2023-08-06T11:45:49;2.00;;;1.00;;
2031;SDS011;27625;50.422;7.944;2023-08-06T11:48:19;2.83;;;1.00;;
2031;SDS011;27625;50.422;7.944;2023-08-06T11:50:45;2.00;;;0.80;;
2031;SDS011;27625;50.422;7.944;2023-08-06T11:53:14;2.20;;;0.80;;
2031;SDS011;27625;50.422;7.944;2023-08-06T11:55:42;2.77;;;1.00;;
2031;SDS011;27625;50.422;7.944;2023-08-06T11:58:09;1.90;;;0.87;;
2031;SDS011;27625;50.422;7.944;2023-08-06T12:00:37;2.60;;;1.20;;
2031;SDS011;27625;50.422;7.944;2023-08-06T12:03:05;2.27;;;1.10;;
2031;SDS011;27625;50.422;7.944;2023-08-06T12:05:33;2.73;;;0.90;;
2031;SDS011;27625;50.422;7.944;2023-08-06T12:08:00;1.80;;;0.90;;
2031;SDS011;27625;50.422;7.944;2023-08-06T12:10:29;2.63;;;1.10;;
2031;SDS011;27625;50.422;7.944;2023-08-06T12:12:57;2.10;;;0.80;;
2031;SDS011;27625;50.422;7.944;2023-08-06T12:15:24;1.90;;;0.90;;
2031;SDS011;27625;50.422;7.944;2023-08-06T12:17:53;2.20;;;1.20;;
2031;SDS011;27625;50.422;7.944;2023-08-06T12:20:20;2.20;;;1.20;;
2031;SDS011;27625;50.422;7.944;2023-08-06T12:22:48;2.50;;;1.10;;
2031;SDS011;27625;50.422;7.944;2023-08-06T12:25:16;2.50;;;1.00;;
2031;SDS011;27625;50.422;7.944;2023-08-06T12:27:43;7.90;;;1.30;;
2031;SDS011;27625;50.422;7.944;2023-08-06T12:30:13;1.97;;;1.07;;
2031;SDS011;27625;50.422;7.944;2023-08-06T12:32:39;3.80;;;1.47;;
2031;SDS011;27625;50.422;7.944;2023-08-06T12:35:06;2.20;;;1.20;;
2031;SDS011;27625;50.422;7.944;2023-08-06T12:37:35;2.53;;;1.10;;
2031;SDS011;27625;50.422;7.944;2023-08-06T12:40:05;2.10;;;1.10;;
2031;SDS011;27625;50.422;7.944;2023-08-06T12:42:33;2.00;;;1.00;;
2031;SDS011;27625;50.422;7.944;2023-08-06T12:45:01;3.70;;;1.37;;
2031;SDS011;27625;50.422;7.944;2023-08-06T12:47:28;2.10;;;0.90;;
2031;SDS011;27625;50.422;7.944;2023-08-06T12:49:54;2.33;;;1.00;;
2031;SDS011;27625;50.422;7.944;2023-08-06T12:52:21;2.07;;;1.13;;
2031;SDS011;27625;50.422;7.944;2023-08-06T12:54:47;2.17;;;1.10;;
2031;SDS011;27625;50.422;7.944;2023-08-06T12:57:15;2.13;;;1.10;;
2031;SDS011;27625;50.422;7.944;2023-08-06T12:59:42;2.10;;;1.20;;
2031;SDS011;27625;50.422;7.944;2023-08-06T13:02:09;1.90;;;1.00;;
2031;SDS011;27625;50.422;7.944;2023-08-06T13:04:37;2.43;;;1.30;;
2031;SDS011;27625;50.422;7.944;2023-08-06T13:07:03;2.00;;;1.10;;
2031;SDS011;27625;50.422;7.944;2023-08-06T13:09:31;3.20;;;1.30;;
2031;SDS011;27625;50.422;7.944;2023-08-06T13:11:58;1.80;;;0.90;;
2031;SDS011;27625;50.422;7.944;2023-08-06T13:14:27;2.00;;;1.03;;
2031;SDS011;27625;50.422;7.944;2023-08-06T13:16:54;3.60;;;1.27;;
2031;SDS011;27625;50.422;7.944;2023-08-06T13:19:23;2.37;;;1.00;;
2031;SDS011;27625;50.422;7.944;2023-08-06T13:21:59;3.03;;;1.10;;
2031;SDS011;27625;50.422;7.944;2023-08-06T13:24:28;2.00;;;1.00;;
2031;SDS011;27625;50.422;7.944;2023-08-06T13:26:56;2.10;;;1.20;;
2031;SDS011;27625;50.422;7.944;2023-08-06T13:29:25;2.00;;;1.00;;
2031;SDS011;27625;50.422;7.944;2023-08-06T13:31:54;2.00;;;0.90;;
2031;SDS011;27625;50.422;7.944;2023-08-06T13:34:20;2.17;;;1.00;;
2031;SDS011;27625;50.422;7.944;2023-08-06T13:36:47;2.30;;;1.20;;
2031;SDS011;27625;50.422;7.944;2023-08-06T13:39:15;2.23;;;1.00;;
2031;SDS011;27625;50.422;7.944;2023-08-06T13:41:42;2.10;;;1.10;;
2031;SDS011;27625;50.422;7.944;2023-08-06T13:44:09;1.90;;;1.10;;
2031;SDS011;27625;50.422;7.944;2023-08-06T13:46:40;2.00;;;1.00;;
2031;SDS011;27625;50.422;7.944;2023-08-06T13:49:09;2.67;;;1.10;;
2031;SDS011;27625;50.422;7.944;2023-08-06T13:51:37;2.40;;;1.00;;
2031;SDS011;27625;50.422;7.944;2023-08-06T13:54:04;1.97;;;0.90;;
2031;SDS011;27625;50.422;7.944;2023-08-06T13:56:31;1.80;;;0.90;;
2031;SDS011;27625;50.422;7.944;2023-08-06T13:58:59;1.70;;;0.80;;
2031;SDS011;27625;50.422;7.944;2023-08-06T14:01:27;2.40;;;1.13;;
2031;SDS011;27625;50.422;7.944;2023-08-06T14:03:54;1.90;;;1.00;;
2031;SDS011;27625;50.422;7.944;2023-08-06T14:06:22;1.77;;;0.77;;
2031;SDS011;27625;50.422;7.944;2023-08-06T14:08:49;4.00;;;1.10;;
2031;SDS011;27625;50.422;7.944;2023-08-06T14:11:15;1.80;;;0.80;;
2031;SDS011;27625;50.422;7.944;2023-08-06T14:13:43;2.20;;;1.20;;
2031;SDS011;27625;50.422;7.944;2023-08-06T14:16:10;2.10;;;1.20;;
2031;SDS011;27625;50.422;7.944;2023-08-06T14:18:37;2.47;;;1.10;;
2031;SDS011;27625;50.422;7.944;2023-08-06T14:21:07;2.13;;;0.90;;
2031;SDS011;27625;50.422;7.944;2023-08-06T14:23:35;1.90;;;0.90;;
2031;SDS011;27625;50.422;7.944;2023-08-06T14:26:03;3.10;;;2.20;;
2031;SDS011;27625;50.422;7.944;2023-08-06T14:28:31;2.43;;;1.30;;
2031;SDS011;27625;50.422;7.944;2023-08-06T14:30:57;2.20;;;1.40;;
2031;SDS011;27625;50.422;7.944;2023-08-06T14:33:24;2.20;;;1.20;;
2031;SDS011;27625;50.422;7.944;2023-08-06T14:35:57;2.33;;;1.13;;
2031;SDS011;27625;50.422;7.944;2023-08-06T14:38:25;2.40;;;1.47;;
2031;SDS011;27625;50.422;7.944;2023-08-06T14:40:53;2.53;;;1.47;;
2031;SDS011;27625;50.422;7.944;2023-08-06T14:43:20;2.93;;;1.50;;
2031;SDS011;27625;50.422;7.944;2023-08-06T14:45:48;2.37;;;1.40;;
2031;SDS011;27625;50.422;7.944;2023-08-06T14:48:14;2.30;;;1.40;;
2031;SDS011;27625;50.422;7.944;2023-08-06T14:50:42;2.93;;;1.43;;
2031;SDS011;27625;50.422;7.944;2023-08-06T14:53:10;2.17;;;1.30;;
2031;SDS011;27625;50.422;7.944;2023-08-06T14:55:38;2.07;;;1.20;;
2031;SDS011;27625;50.422;7.944;2023-08-06T14:58:10;5.80;;;1.57;;
2031;SDS011;27625;50.422;7.944;2023-08-06T15:00:38;2.20;;;1.30;;
2031;SDS011;27625;50.422;7.944;2023-08-06T15:03:05;2.73;;;1.70;;
2031;SDS011;27625;50.422;7.944;2023-08-06T15:05:31;2.97;;;1.80;;
2031;SDS011;27625;50.422;7.944;2023-08-06T15:07:58;3.50;;;1.87;;
2031;SDS011;27625;50.422;7.944;2023-08-06T15:10:25;2.33;;;1.07;;
2031;SDS011;27625;50.422;7.944;2023-08-06T15:12:52;2.00;;;1.20;;
2031;SDS011;27625;50.422;7.944;2023-08-06T15:15:20;2.00;;;1.10;;
2031;SDS011;27625;50.422;7.944;2023-08-06T15:17:48;2.13;;;1.27;;
2031;SDS011;27625;50.422;7.944;2023-08-06T15:20:14;4.40;;;1.60;;
2031;SDS011;27625;50.422;7.944;2023-08-06T15:22:48;2.00;;;1.20;;
2031;SDS011;27625;50.422;7.944;2023-08-06T15:25:15;2.60;;;1.33;;
2031;SDS011;27625;50.422;7.944;2023-08-06T15:27:42;4.70;;;1.47;;
2031;SDS011;27625;50.422;7.944;2023-08-06T15:30:09;2.10;;;1.20;;
2031;SDS011;27625;50.422;7.944;2023-08-06T15:32:38;2.00;;;1.00;;